createdAt,value
2023-02-23T00:01:34.622Z,5.93
2023-02-23T00:04:01.360Z,5.90
2023-02-23T00:06:30.963Z,4.00
2023-02-23T00:08:57.818Z,5.10
2023-02-23T00:11:24.810Z,4.77
2023-02-23T00:13:51.493Z,5.53
2023-02-23T00:16:20.561Z,5.00
2023-02-23T00:18:50.892Z,4.83
2023-02-23T00:21:19.694Z,6.47
2023-02-23T00:23:52.836Z,5.83
2023-02-23T00:26:20.345Z,5.20
2023-02-23T00:28:48.239Z,5.00
2023-02-23T00:31:15.278Z,4.70
2023-02-23T00:33:41.953Z,5.90
2023-02-23T00:36:11.370Z,5.03
2023-02-23T00:38:39.203Z,6.60
2023-02-23T00:41:09.475Z,4.60
2023-02-23T00:43:37.475Z,5.97
2023-02-23T00:46:05.227Z,4.93
2023-02-23T00:48:32.288Z,6.03
2023-02-23T00:50:59.912Z,5.97
2023-02-23T00:53:26.616Z,5.90
2023-02-23T00:55:53.515Z,6.30
2023-02-23T00:58:21.794Z,4.87
2023-02-23T01:00:48.522Z,5.27
2023-02-23T01:03:15.419Z,5.47
2023-02-23T01:05:42.092Z,5.90
2023-02-23T01:08:08.799Z,6.30
2023-02-23T01:10:39.438Z,6.87
2023-02-23T01:13:06.365Z,5.63
2023-02-23T01:15:34.621Z,3.70
2023-02-23T01:18:01.357Z,5.60
2023-02-23T01:20:28.081Z,5.13
2023-02-23T01:22:54.709Z,6.90
2023-02-23T01:25:21.444Z,4.60
2023-02-23T01:27:48.078Z,4.83
2023-02-23T01:30:15.512Z,4.40
2023-02-23T01:32:43.515Z,4.83
2023-02-23T01:35:11.403Z,5.03
2023-02-23T01:37:40.636Z,4.40
2023-02-23T01:40:11.924Z,4.17
2023-02-23T01:42:39.426Z,6.53
2023-02-23T01:45:23.880Z,5.00
2023-02-23T01:47:55.627Z,5.30
2023-02-23T01:50:24.409Z,5.77
2023-02-23T01:52:51.993Z,5.40
2023-02-23T01:55:20.786Z,4.10
2023-02-23T01:57:47.478Z,5.30
2023-02-23T02:00:14.958Z,4.40
2023-02-23T02:02:41.686Z,3.97
2023-02-23T02:05:09.928Z,4.97
2023-02-23T02:07:37.089Z,4.20
2023-02-23T02:10:04.470Z,5.37
2023-02-23T02:12:32.839Z,5.27
2023-02-23T02:15:00.630Z,4.73
2023-02-23T02:17:36.299Z,3.40
2023-02-23T02:20:34.814Z,4.20
2023-02-23T02:23:33.595Z,5.40
2023-02-23T02:26:09.692Z,4.90
2023-02-23T02:29:02.828Z,4.43
2023-02-23T02:32:07.370Z,4.67
2023-02-23T02:34:55.684Z,4.67
2023-02-23T02:37:48.081Z,4.50
2023-02-23T02:40:26.138Z,3.80
2023-02-23T02:43:01.301Z,4.27
2023-02-23T02:45:35.262Z,4.63
2023-02-23T02:48:10.719Z,3.93
2023-02-23T02:50:43.746Z,3.70
2023-02-23T02:53:17.205Z,5.03
2023-02-23T02:55:45.968Z,4.03
2023-02-23T02:58:13.167Z,4.40
2023-02-23T03:00:41.348Z,4.47
2023-02-23T03:03:26.666Z,4.07
2023-02-23T03:05:54.893Z,3.30
2023-02-23T03:08:28.714Z,4.23
2023-02-23T03:11:01.022Z,4.80
2023-02-23T03:13:41.446Z,3.63
2023-02-23T03:16:18.699Z,4.70
2023-02-23T03:18:55.212Z,3.83
2023-02-23T03:21:25.946Z,4.27
2023-02-23T03:24:03.173Z,4.00
2023-02-23T03:26:36.249Z,4.83
2023-02-23T03:29:09.315Z,3.23
2023-02-23T03:31:40.549Z,5.80
2023-02-23T03:34:11.162Z,5.00
2023-02-23T03:36:42.604Z,5.13
2023-02-23T03:39:17.030Z,4.40
2023-02-23T03:41:46.024Z,4.03
2023-02-23T03:44:17.455Z,4.13
2023-02-23T03:46:47.155Z,3.40
2023-02-23T03:49:15.525Z,4.53
2023-02-23T03:51:46.647Z,3.77
2023-02-23T03:54:18.477Z,4.03
2023-02-23T03:56:48.706Z,3.30
2023-02-23T03:59:17.986Z,4.27
2023-02-23T04:01:45.805Z,3.60
2023-02-23T04:04:12.679Z,3.87
2023-02-23T04:06:43.362Z,4.10
2023-02-23T04:09:11.419Z,3.77
2023-02-23T04:11:46.617Z,3.73
2023-02-23T04:14:19.405Z,4.20
2023-02-23T04:16:47.091Z,4.70
2023-02-23T04:19:14.260Z,4.17
2023-02-23T04:21:40.922Z,3.90
2023-02-23T04:24:07.735Z,4.50
2023-02-23T04:26:34.479Z,3.80
2023-02-23T04:29:02.533Z,4.60
2023-02-23T04:31:29.278Z,4.50
2023-02-23T04:33:55.941Z,5.80
2023-02-23T04:36:22.574Z,4.37
2023-02-23T04:38:49.219Z,4.80
2023-02-23T04:41:15.852Z,3.47
2023-02-23T04:43:42.536Z,4.50
2023-02-23T04:46:10.631Z,4.83
2023-02-23T04:48:37.363Z,4.17
2023-02-23T04:51:04.449Z,4.10
2023-02-23T04:53:31.110Z,4.80
2023-02-23T04:55:57.735Z,4.33
2023-02-23T04:58:24.391Z,4.53
2023-02-23T05:00:51.026Z,3.27
2023-02-23T05:03:19.015Z,5.33
2023-02-23T05:05:45.832Z,5.00
2023-02-23T05:08:12.686Z,5.17
2023-02-23T05:10:40.460Z,4.60
2023-02-23T05:13:07.298Z,4.40
2023-02-23T05:15:33.978Z,4.60
2023-02-23T05:18:00.667Z,5.30
2023-02-23T05:20:28.714Z,4.60
2023-02-23T05:22:55.811Z,3.57
2023-02-23T05:25:22.501Z,3.37
2023-02-23T05:27:49.141Z,5.03
2023-02-23T05:30:16.173Z,3.77
2023-02-23T05:32:42.838Z,5.70
2023-02-23T05:35:09.992Z,6.60
2023-02-23T05:37:38.044Z,4.87
2023-02-23T05:40:05.761Z,4.60
2023-02-23T05:42:32.404Z,4.40
2023-02-23T05:44:59.067Z,4.57
2023-02-23T05:47:25.725Z,4.90
2023-02-23T05:49:52.345Z,5.07
2023-02-23T05:52:19.028Z,5.50
2023-02-23T05:54:47.122Z,5.43
2023-02-23T05:57:13.785Z,7.00
2023-02-23T05:59:40.616Z,5.17
2023-02-23T06:02:07.418Z,6.63
2023-02-23T06:04:34.232Z,5.50
2023-02-23T06:07:00.893Z,5.60
2023-02-23T06:09:27.608Z,4.40
2023-02-23T06:11:55.597Z,6.67
2023-02-23T06:14:22.245Z,6.27
2023-02-23T06:16:49.020Z,5.20
2023-02-23T06:19:15.776Z,8.97
2023-02-23T06:21:42.411Z,5.83
2023-02-23T06:24:09.068Z,8.20
2023-02-23T06:26:35.899Z,8.00
2023-02-23T06:29:03.861Z,6.80
2023-02-23T06:31:30.634Z,12.80
2023-02-23T06:33:57.394Z,11.47
2023-02-23T06:36:24.029Z,11.20
2023-02-23T06:38:50.688Z,11.60
2023-02-23T06:41:17.629Z,6.67
2023-02-23T06:43:44.455Z,8.87
2023-02-23T06:46:12.548Z,6.97
2023-02-23T06:48:39.229Z,7.83
2023-02-23T06:51:06.194Z,10.10
2023-02-23T06:53:33.004Z,10.47
2023-02-23T06:55:59.767Z,8.43
2023-02-23T06:58:26.475Z,9.03
2023-02-23T07:00:55.150Z,9.00
2023-02-23T07:03:23.277Z,9.20
2023-02-23T07:05:49.966Z,10.53
2023-02-23T07:08:16.709Z,9.40
2023-02-23T07:10:43.741Z,10.17
2023-02-23T07:13:10.375Z,10.03
2023-02-23T07:15:37.066Z,6.60
2023-02-23T07:18:03.915Z,8.70
2023-02-23T07:20:32.504Z,8.27
2023-02-23T07:22:59.430Z,8.67
2023-02-23T07:25:26.321Z,7.97
2023-02-23T07:27:53.154Z,9.40
2023-02-23T07:30:20.380Z,9.03
2023-02-23T07:32:47.097Z,9.23
2023-02-23T07:35:13.789Z,9.97
2023-02-23T07:37:41.858Z,10.13
2023-02-23T07:40:09.725Z,9.90
2023-02-23T07:42:36.570Z,9.20
2023-02-23T07:45:03.780Z,8.10
2023-02-23T07:47:30.526Z,10.77
2023-02-23T07:49:58.268Z,10.60
2023-02-23T07:52:25.029Z,12.17
2023-02-23T07:54:53.409Z,14.33
2023-02-23T07:57:21.614Z,13.00
2023-02-23T07:59:49.848Z,12.50
2023-02-23T08:02:16.507Z,16.50
2023-02-23T08:04:43.282Z,15.40
2023-02-23T08:07:10.371Z,13.73
2023-02-23T08:09:37.256Z,15.67
2023-02-23T08:12:05.966Z,15.60
2023-02-23T08:14:32.709Z,15.73
2023-02-23T08:16:59.484Z,15.50
2023-02-23T08:19:26.219Z,17.07
2023-02-23T08:21:53.063Z,16.53
2023-02-23T08:24:19.899Z,17.57
2023-02-23T08:26:46.551Z,16.80
2023-02-23T08:29:14.606Z,17.50
2023-02-23T08:31:41.428Z,19.73
2023-02-23T08:34:08.333Z,17.80
2023-02-23T08:36:35.235Z,19.07
2023-02-23T08:39:02.062Z,18.57
2023-02-23T08:41:28.888Z,20.80
2023-02-23T08:43:55.542Z,20.90
2023-02-23T08:46:23.610Z,21.87
2023-02-23T08:48:50.401Z,23.50
2023-02-23T08:51:17.321Z,22.63
2023-02-23T08:53:44.315Z,23.73
2023-02-23T08:56:11.771Z,22.93
2023-02-23T08:58:38.862Z,30.90
2023-02-23T09:01:05.901Z,30.00
2023-02-23T09:03:36.646Z,31.77
2023-02-23T09:06:08.321Z,33.07
2023-02-23T09:08:35.696Z,32.80
2023-02-23T09:11:02.593Z,34.67
2023-02-23T09:13:29.306Z,33.20
2023-02-23T09:15:56.061Z,33.90
2023-02-23T09:18:22.831Z,36.50
2023-02-23T09:20:50.929Z,35.50
2023-02-23T09:23:17.635Z,35.30
2023-02-23T09:25:45.333Z,39.47
2023-02-23T09:28:13.044Z,37.93
2023-02-23T09:30:40.067Z,40.77
2023-02-23T09:33:07.134Z,40.43
2023-02-23T09:35:34.929Z,42.03
2023-02-23T09:38:04.302Z,42.23
2023-02-23T09:40:36.969Z,41.83
2023-02-23T09:43:11.743Z,42.37
2023-02-23T09:45:40.620Z,45.40
2023-02-23T09:48:13.087Z,42.77
2023-02-23T09:50:44.913Z,46.53
2023-02-23T09:53:24.592Z,42.40
2023-02-23T09:55:53.455Z,46.43
2023-02-23T09:58:22.610Z,45.53
2023-02-23T10:01:05.459Z,44.30
2023-02-23T10:03:34.761Z,44.00
2023-02-23T10:06:05.845Z,46.27
2023-02-23T10:08:46.478Z,47.20
2023-02-23T10:11:23.625Z,48.03
2023-02-23T10:13:58.032Z,46.60
2023-02-23T10:16:36.694Z,46.00
2023-02-23T10:19:10.181Z,46.90
2023-02-23T10:21:40.509Z,49.40
2023-02-23T10:24:12.834Z,45.80
2023-02-23T10:26:43.539Z,51.57
2023-02-23T10:29:22.306Z,50.77
2023-02-23T10:31:54.120Z,50.00
2023-02-23T10:34:23.528Z,50.63
2023-02-23T10:36:55.816Z,51.70
2023-02-23T10:39:24.383Z,47.30
2023-02-23T10:41:52.162Z,50.07
2023-02-23T10:44:22.359Z,51.50
2023-02-23T10:46:55.721Z,51.77
2023-02-23T10:49:27.680Z,53.37
2023-02-23T10:51:54.474Z,52.83
2023-02-23T10:54:40.422Z,54.60
2023-02-23T10:57:08.114Z,49.20
2023-02-23T10:59:35.243Z,50.20
2023-02-23T11:02:21.673Z,53.97
2023-02-23T11:04:53.518Z,52.00
2023-02-23T11:07:23.688Z,49.23
2023-02-23T11:09:51.868Z,49.77
2023-02-23T11:12:22.405Z,50.80
2023-02-23T11:14:50.022Z,48.67
2023-02-23T11:17:27.740Z,54.70
2023-02-23T11:20:02.726Z,56.13
2023-02-23T11:22:35.660Z,53.13
2023-02-23T11:25:15.605Z,51.73
2023-02-23T11:27:46.966Z,57.50
2023-02-23T11:30:14.259Z,55.90
2023-02-23T11:32:41.539Z,58.03
2023-02-23T11:35:21.101Z,54.97
2023-02-23T11:37:48.254Z,50.17
2023-02-23T11:40:22.106Z,55.70
2023-02-23T11:42:53.660Z,57.60
2023-02-23T11:45:22.299Z,64.87
2023-02-23T11:47:51.595Z,57.67
2023-02-23T11:50:24.798Z,55.60
2023-02-23T11:52:57.985Z,58.03
2023-02-23T11:55:26.624Z,57.20
2023-02-23T11:57:53.485Z,57.53
2023-02-23T12:00:26.642Z,57.37
2023-02-23T12:02:57.338Z,56.30
2023-02-23T12:05:26.498Z,59.13
2023-02-23T12:07:59.715Z,57.77
2023-02-23T12:10:32.696Z,56.87
2023-02-23T12:13:08.360Z,61.27
2023-02-23T12:15:41.850Z,55.30
2023-02-23T12:18:15.315Z,55.07
2023-02-23T12:20:47.443Z,53.83
2023-02-23T12:23:19.805Z,56.87
2023-02-23T12:25:52.249Z,56.87
2023-02-23T12:28:23.282Z,58.07
2023-02-23T12:30:53.342Z,56.13
2023-02-23T12:33:24.628Z,52.53
2023-02-23T12:35:56.018Z,55.17
2023-02-23T12:38:29.632Z,54.67
2023-02-23T12:41:04.229Z,53.17
2023-02-23T12:43:37.481Z,55.60
2023-02-23T12:46:10.033Z,54.43
2023-02-23T12:48:46.623Z,54.33
2023-02-23T12:51:20.941Z,53.57
2023-02-23T12:53:47.762Z,50.60
2023-02-23T12:56:32.083Z,50.30
2023-02-23T12:59:14.259Z,51.60
2023-02-23T13:01:45.808Z,50.27
2023-02-23T13:04:32.143Z,53.80
2023-02-23T13:07:06.199Z,52.17
2023-02-23T13:09:43.542Z,49.77
2023-02-23T13:12:27.419Z,48.20
2023-02-23T13:15:01.729Z,50.03
2023-02-23T13:17:43.497Z,49.50
2023-02-23T13:20:18.021Z,47.57
2023-02-23T13:22:49.648Z,48.20
2023-02-23T13:25:28.856Z,47.90
2023-02-23T13:27:59.893Z,51.17
2023-02-23T13:30:28.567Z,49.83
2023-02-23T13:32:55.350Z,48.23
2023-02-23T13:35:22.059Z,49.27
2023-02-23T13:37:51.885Z,49.50
2023-02-23T13:40:31.369Z,52.57
2023-02-23T13:43:12.540Z,51.80
2023-02-23T13:45:50.310Z,50.63
2023-02-23T13:48:29.606Z,51.53
2023-02-23T13:51:03.469Z,50.13
2023-02-23T13:53:38.493Z,52.70
2023-02-23T13:56:09.149Z,54.10
2023-02-23T13:58:37.934Z,52.23
2023-02-23T14:01:17.411Z,50.30
2023-02-23T14:03:52.042Z,54.87
2023-02-23T14:06:19.595Z,47.87
2023-02-23T14:08:52.566Z,50.50
2023-02-23T14:11:37.202Z,56.00
2023-02-23T14:14:05.482Z,50.77
2023-02-23T14:16:32.461Z,50.20
2023-02-23T14:19:11.798Z,46.40
2023-02-23T14:21:45.513Z,50.27
2023-02-23T14:24:21.729Z,51.30
2023-02-23T14:27:39.722Z,52.70
2023-02-23T14:30:21.620Z,44.73
2023-02-23T14:32:50.212Z,50.20
2023-02-23T14:35:38.060Z,50.67
2023-02-23T14:38:09.622Z,50.73
2023-02-23T14:40:40.715Z,51.40
2023-02-23T14:43:42.479Z,49.30
2023-02-23T14:46:18.300Z,49.93
2023-02-23T14:48:57.363Z,53.13
2023-02-23T14:51:31.273Z,52.70
2023-02-23T14:54:01.335Z,51.37
2023-02-23T14:56:42.156Z,49.27
2023-02-23T14:59:19.036Z,45.73
2023-02-23T15:01:48.161Z,49.77
2023-02-23T15:04:18.454Z,46.60
2023-02-23T15:06:45.396Z,42.43
2023-02-23T15:09:17.922Z,43.00
2023-02-23T15:11:47.706Z,44.77
2023-02-23T15:14:26.932Z,42.60
2023-02-23T15:16:56.527Z,43.07
2023-02-23T15:19:35.630Z,43.63
2023-02-23T15:22:04.477Z,40.43
2023-02-23T15:24:40.781Z,41.47
2023-02-23T15:27:16.645Z,38.50
2023-02-23T15:29:43.715Z,38.17
2023-02-23T15:32:17.855Z,39.40
2023-02-23T15:34:44.929Z,37.13
2023-02-23T15:37:16.852Z,35.10
2023-02-23T15:39:49.144Z,31.63
2023-02-23T15:42:22.140Z,35.17
2023-02-23T15:44:55.432Z,31.30
2023-02-23T15:47:25.857Z,31.20
2023-02-23T15:49:52.793Z,28.03
2023-02-23T15:52:24.362Z,28.00
2023-02-23T15:54:54.327Z,26.47
2023-02-23T15:57:27.245Z,28.80
2023-02-23T15:59:58.252Z,26.13
2023-02-23T16:02:26.428Z,28.57
2023-02-23T16:04:53.309Z,26.93
2023-02-23T16:07:22.257Z,26.30
2023-02-23T16:09:51.866Z,27.83
2023-02-23T16:12:21.486Z,25.30
2023-02-23T16:14:53.435Z,26.20
2023-02-23T16:17:28.489Z,28.33
2023-02-23T16:20:03.452Z,30.97
2023-02-23T16:22:32.333Z,31.27
2023-02-23T16:25:01.933Z,27.97
2023-02-23T16:27:29.829Z,30.13
2023-02-23T16:30:05.546Z,31.53
2023-02-23T16:32:36.871Z,29.53
2023-02-23T16:35:11.303Z,31.83
2023-02-23T16:37:50.784Z,30.53
2023-02-23T16:40:18.036Z,31.17
2023-02-23T16:42:44.874Z,32.40
2023-02-23T16:45:15.082Z,30.43
2023-02-23T16:47:44.663Z,34.37
2023-02-23T16:50:19.818Z,34.70
2023-02-23T16:52:48.822Z,33.43
2023-02-23T16:55:16.294Z,30.77
2023-02-23T16:57:43.033Z,29.97
2023-02-23T17:00:14.234Z,29.70
2023-02-23T17:02:41.232Z,29.07
2023-02-23T17:05:13.056Z,27.70
2023-02-23T17:07:39.990Z,27.20
2023-02-23T17:10:08.768Z,27.67
2023-02-23T17:12:35.415Z,25.07
2023-02-23T17:15:03.061Z,22.80
2023-02-23T17:17:29.784Z,22.33
2023-02-23T17:19:56.475Z,23.40
2023-02-23T17:22:24.508Z,19.53
2023-02-23T17:24:51.155Z,22.33
2023-02-23T17:27:17.766Z,19.10
2023-02-23T17:29:44.425Z,20.07
2023-02-23T17:32:11.282Z,18.17
2023-02-23T17:34:38.647Z,19.80
2023-02-23T17:37:07.578Z,18.87
2023-02-23T17:39:35.995Z,18.27
2023-02-23T17:42:02.639Z,18.43
2023-02-23T17:44:30.812Z,18.33
2023-02-23T17:46:57.458Z,17.93
2023-02-23T17:49:25.449Z,18.00
2023-02-23T17:51:52.113Z,17.30
2023-02-23T17:54:18.778Z,17.30
2023-02-23T17:56:46.763Z,18.20
2023-02-23T17:59:13.511Z,17.40
2023-02-23T18:01:40.270Z,16.97
2023-02-23T18:04:06.939Z,15.47
2023-02-23T18:06:33.666Z,14.60
2023-02-23T18:09:00.301Z,16.70
2023-02-23T18:11:27.363Z,16.13
2023-02-23T18:13:55.562Z,15.40
2023-02-23T18:16:22.447Z,14.17
2023-02-23T18:18:49.292Z,13.27
2023-02-23T18:21:17.958Z,12.67
2023-02-23T18:23:44.809Z,13.50
2023-02-23T18:26:14.036Z,12.60
2023-02-23T18:28:40.785Z,13.67
2023-02-23T18:31:11.184Z,13.50
2023-02-23T18:33:37.891Z,13.80
2023-02-23T18:36:15.598Z,12.20
2023-02-23T18:38:42.286Z,12.10
2023-02-23T18:41:09.001Z,12.27
2023-02-23T18:43:35.758Z,11.80
2023-02-23T18:46:05.501Z,13.43
2023-02-23T18:48:33.542Z,12.07
2023-02-23T18:51:00.224Z,11.07
2023-02-23T18:53:27.053Z,12.10
2023-02-23T18:55:53.698Z,11.30
2023-02-23T18:58:20.365Z,12.20
2023-02-23T19:00:47.119Z,11.60
2023-02-23T19:03:13.821Z,13.10
2023-02-23T19:05:44.930Z,14.00
2023-02-23T19:08:11.616Z,12.33
2023-02-23T19:10:38.329Z,10.83
2023-02-23T19:13:04.957Z,11.70
2023-02-23T19:15:31.617Z,12.43
2023-02-23T19:17:58.286Z,12.60
2023-02-23T19:20:24.992Z,11.27
2023-02-23T19:22:53.072Z,13.47
2023-02-23T19:25:19.704Z,11.97
2023-02-23T19:27:46.366Z,12.00
2023-02-23T19:30:13.382Z,11.97
2023-02-23T19:32:40.318Z,12.10
2023-02-23T19:35:09.143Z,11.93
2023-02-23T19:37:36.212Z,12.90
2023-02-23T19:40:05.441Z,11.77
2023-02-23T19:42:32.117Z,11.10
2023-02-23T19:44:59.216Z,10.13
2023-02-23T19:47:25.932Z,12.53
2023-02-23T19:49:52.606Z,11.83
2023-02-23T19:52:19.237Z,11.60
2023-02-23T19:54:45.874Z,11.33
2023-02-23T19:57:13.835Z,14.70
2023-02-23T19:59:40.663Z,12.43
2023-02-23T20:02:09.147Z,13.80
2023-02-23T20:04:35.790Z,12.93
2023-02-23T20:07:02.443Z,11.57
2023-02-23T20:09:29.266Z,12.20
2023-02-23T20:11:56.011Z,10.83
2023-02-23T20:14:23.999Z,12.67
2023-02-23T20:16:50.938Z,12.17
2023-02-23T20:19:17.635Z,11.97
2023-02-23T20:21:44.383Z,12.80
2023-02-23T20:24:11.057Z,11.87
2023-02-23T20:26:37.783Z,11.83
2023-02-23T20:29:06.968Z,11.90
2023-02-23T20:31:36.339Z,12.47
2023-02-23T20:34:06.127Z,10.97
2023-02-23T20:36:32.848Z,11.27
2023-02-23T20:38:59.921Z,10.10
2023-02-23T20:41:26.619Z,13.20
2023-02-23T20:43:53.376Z,11.60
2023-02-23T20:46:20.270Z,12.10
2023-02-23T20:48:48.317Z,12.77
2023-02-23T20:51:16.616Z,13.37
2023-02-23T20:53:43.311Z,12.30
2023-02-23T20:56:10.039Z,12.80
2023-02-23T20:58:36.744Z,12.83
2023-02-23T21:01:03.483Z,14.20
2023-02-23T21:03:30.319Z,14.37
2023-02-23T21:05:58.378Z,15.07
2023-02-23T21:08:25.248Z,13.13
2023-02-23T21:10:52.035Z,15.13
2023-02-23T21:13:18.698Z,15.97
2023-02-23T21:15:46.287Z,13.83
2023-02-23T21:18:12.976Z,18.90
2023-02-23T21:20:40.372Z,14.97
2023-02-23T21:23:08.437Z,16.23
2023-02-23T21:25:35.157Z,18.07
2023-02-23T21:28:02.056Z,15.97
2023-02-23T21:30:29.336Z,15.17
2023-02-23T21:32:57.339Z,16.60
2023-02-23T21:35:24.713Z,18.57
2023-02-23T21:37:52.107Z,19.67
2023-02-23T21:40:20.649Z,16.73
2023-02-23T21:42:48.270Z,16.53
2023-02-23T21:45:15.748Z,18.73
2023-02-23T21:47:44.192Z,21.03
2023-02-23T21:50:14.043Z,19.20
2023-02-23T21:52:41.730Z,18.70
2023-02-23T21:55:19.629Z,17.90
2023-02-23T21:57:49.074Z,18.80
2023-02-23T22:00:16.241Z,19.47
2023-02-23T22:02:43.155Z,18.20
2023-02-23T22:05:10.341Z,20.10
2023-02-23T22:07:36.971Z,19.70
2023-02-23T22:10:04.950Z,18.57
2023-02-23T22:12:31.706Z,20.17
2023-02-23T22:15:02.347Z,23.10
2023-02-23T22:17:29.046Z,21.43
2023-02-23T22:19:55.922Z,21.40
2023-02-23T22:22:22.600Z,20.80
2023-02-23T22:24:49.394Z,22.60
2023-02-23T22:27:16.378Z,23.50
2023-02-23T22:29:43.228Z,22.23
2023-02-23T22:32:11.377Z,22.93
2023-02-23T22:34:38.151Z,22.60
2023-02-23T22:37:04.875Z,23.20
2023-02-23T22:39:31.567Z,23.10
2023-02-23T22:41:58.393Z,23.97
2023-02-23T22:44:25.117Z,26.23
2023-02-23T22:46:51.771Z,19.90
2023-02-23T22:49:20.255Z,21.93
2023-02-23T22:51:47.052Z,24.20
2023-02-23T22:54:14.081Z,21.53
2023-02-23T22:56:40.945Z,22.70
2023-02-23T22:59:07.656Z,24.40
2023-02-23T23:01:34.881Z,22.83
2023-02-23T23:04:01.587Z,22.70
2023-02-23T23:06:29.629Z,23.87
2023-02-23T23:08:56.783Z,18.63
2023-02-23T23:11:25.732Z,21.70
2023-02-23T23:13:53.978Z,18.30
2023-02-23T23:16:31.591Z,17.87
2023-02-23T23:19:01.435Z,16.60
2023-02-23T23:21:31.291Z,14.97
2023-02-23T23:24:00.247Z,14.50
2023-02-23T23:26:28.319Z,14.20
2023-02-23T23:28:57.024Z,13.70
2023-02-23T23:31:26.385Z,13.83
2023-02-23T23:33:54.031Z,11.10
2023-02-23T23:36:23.381Z,11.03
2023-02-23T23:38:52.141Z,7.00
2023-02-23T23:41:20.135Z,5.80
2023-02-23T23:43:47.577Z,4.57
2023-02-23T23:46:14.343Z,3.83
2023-02-23T23:48:41.118Z,5.40
2023-02-23T23:51:08.384Z,5.00
2023-02-23T23:53:35.060Z,4.30
2023-02-23T23:56:08.379Z,5.20
2023-02-23T23:58:35.467Z,4.60
